createdAt,value
2018-01-22T00:00:01.657Z,16.42
2018-01-22T00:02:29.226Z,13.23
2018-01-22T00:04:56.888Z,13.85
2018-01-22T00:07:24.457Z,14.27
2018-01-22T00:09:52.109Z,16.15
2018-01-22T00:12:19.697Z,15.43
2018-01-22T00:14:47.324Z,13.35
2018-01-22T00:17:14.826Z,15.00
2018-01-22T00:19:43.166Z,19.62
2018-01-22T00:22:11.502Z,14.82
2018-01-22T00:24:39.857Z,18.50
2018-01-22T00:27:07.435Z,16.02
2018-01-22T00:29:35.007Z,12.60
2018-01-22T00:32:03.429Z,16.12
2018-01-22T00:34:31.001Z,14.68
2018-01-22T00:36:58.565Z,12.68
2018-01-22T00:39:26.145Z,13.45
2018-01-22T00:41:53.840Z,18.73
2018-01-22T00:44:22.178Z,10.15
2018-01-22T00:46:49.761Z,13.55
2018-01-22T00:49:17.329Z,11.65
2018-01-22T00:51:44.890Z,14.35
2018-01-22T00:54:13.221Z,13.00
2018-01-22T00:56:40.913Z,14.23
2018-01-22T00:59:08.488Z,13.77
2018-01-22T01:01:36.049Z,12.43
2018-01-22T01:04:03.622Z,10.43
2018-01-22T01:06:31.952Z,11.20
2018-01-22T01:08:59.611Z,10.98
2018-01-22T01:11:27.224Z,10.73
2018-01-22T01:13:54.796Z,11.40
2018-01-22T01:16:23.158Z,8.98
2018-01-22T01:18:50.724Z,11.30
2018-01-22T01:21:18.285Z,10.98
2018-01-22T01:23:45.888Z,11.80
2018-01-22T01:26:13.458Z,10.00
2018-01-22T01:28:41.018Z,10.02
2018-01-22T01:31:08.615Z,11.00
2018-01-22T01:33:36.170Z,9.85
2018-01-22T01:36:03.725Z,12.30
2018-01-22T01:38:31.386Z,10.02
2018-01-22T01:40:59.042Z,11.23
2018-01-22T01:43:26.601Z,10.05
2018-01-22T01:45:54.195Z,9.07
2018-01-22T01:48:21.790Z,11.57
2018-01-22T01:50:49.386Z,8.75
2018-01-22T01:53:16.952Z,11.38
2018-01-22T01:55:44.542Z,9.02
2018-01-22T01:58:12.099Z,7.68
2018-01-22T02:00:39.720Z,9.52
2018-01-22T02:03:07.277Z,8.38
2018-01-22T02:05:34.850Z,7.80
2018-01-22T02:08:02.414Z,7.12
2018-01-22T02:10:29.977Z,8.30
2018-01-22T02:12:57.624Z,9.52
2018-01-22T02:15:25.221Z,6.72
2018-01-22T02:17:52.885Z,7.53
2018-01-22T02:20:20.492Z,7.10
2018-01-22T02:22:48.077Z,8.75
2018-01-22T02:25:15.713Z,6.32
2018-01-22T02:27:43.305Z,8.77
2018-01-22T02:30:10.874Z,7.10
2018-01-22T02:32:38.627Z,8.68
2018-01-22T02:35:06.190Z,6.72
2018-01-22T02:37:33.735Z,7.43
2018-01-22T02:40:01.314Z,8.80
2018-01-22T02:42:28.872Z,7.00
2018-01-22T02:44:56.420Z,9.45
2018-01-22T02:47:24.111Z,8.15
2018-01-22T02:49:51.681Z,13.75
2018-01-22T02:52:19.396Z,9.02
2018-01-22T02:54:46.995Z,7.97
2018-01-22T02:57:14.539Z,7.25
2018-01-22T02:59:42.072Z,8.88
2018-01-22T03:02:10.389Z,9.30
2018-01-22T03:04:37.935Z,7.85
2018-01-22T03:07:05.480Z,6.65
2018-01-22T03:09:33.027Z,8.35
2018-01-22T03:12:01.369Z,7.03
2018-01-22T03:14:29.002Z,7.25
2018-01-22T03:16:56.586Z,7.82
2018-01-22T03:19:24.125Z,7.93
2018-01-22T03:21:51.748Z,7.15
2018-01-22T03:24:20.100Z,6.87
2018-01-22T03:26:47.665Z,6.80
2018-01-22T03:29:15.212Z,6.18
2018-01-22T03:31:42.750Z,6.82
2018-01-22T03:34:10.298Z,6.97
2018-01-22T03:36:37.857Z,8.50
2018-01-22T03:39:05.433Z,6.00
2018-01-22T03:41:32.969Z,7.72
2018-01-22T03:44:01.293Z,6.50
2018-01-22T03:46:28.840Z,6.50
2018-01-22T03:48:56.405Z,7.03
2018-01-22T03:51:23.965Z,5.95
2018-01-22T03:53:51.567Z,7.85
2018-01-22T03:56:19.134Z,6.85
2018-01-22T03:58:46.703Z,9.73
2018-01-22T04:01:14.243Z,6.03
2018-01-22T04:03:41.781Z,8.00
2018-01-22T04:06:09.358Z,12.70
2018-01-22T04:08:36.897Z,6.07
2018-01-22T04:11:04.585Z,5.70
2018-01-22T04:13:32.140Z,8.50
2018-01-22T04:15:59.729Z,6.82
2018-01-22T04:18:28.053Z,6.68
2018-01-22T04:20:55.713Z,5.68
2018-01-22T04:23:23.277Z,6.50
2018-01-22T04:25:50.826Z,7.00
2018-01-22T04:28:18.404Z,5.87
2018-01-22T04:30:45.946Z,7.75
2018-01-22T04:33:13.490Z,5.75
2018-01-22T04:35:41.817Z,5.12
2018-01-22T04:38:09.398Z,6.05
2018-01-22T04:40:36.969Z,6.62
2018-01-22T04:43:04.528Z,6.80
2018-01-22T04:45:32.183Z,6.10
2018-01-22T04:47:59.733Z,6.53
2018-01-22T04:50:27.290Z,6.32
2018-01-22T04:52:54.853Z,5.75
2018-01-22T04:55:22.442Z,5.57
2018-01-22T04:57:50.217Z,5.65
2018-01-22T05:00:18.541Z,5.50
2018-01-22T05:02:46.072Z,4.45
2018-01-22T05:05:13.633Z,4.97
2018-01-22T05:07:46.238Z,5.53
2018-01-22T05:10:13.834Z,6.12
2018-01-22T05:12:41.369Z,6.70
2018-01-22T05:15:08.917Z,6.72
2018-01-22T05:17:36.793Z,5.87
2018-01-22T05:20:04.354Z,5.20
2018-01-22T05:22:31.884Z,6.75
2018-01-22T05:24:59.485Z,6.05
2018-01-22T05:27:27.035Z,5.75
2018-01-22T05:29:54.622Z,5.15
2018-01-22T05:32:22.186Z,5.93
2018-01-22T05:34:49.877Z,5.45
2018-01-22T05:37:18.190Z,5.45
2018-01-22T05:39:45.741Z,7.07
2018-01-22T05:42:13.284Z,5.28
2018-01-22T05:44:41.628Z,6.22
2018-01-22T05:47:09.194Z,7.65
2018-01-22T05:49:36.975Z,8.13
2018-01-22T05:52:05.279Z,7.78
2018-01-22T05:54:33.621Z,7.50
2018-01-22T05:57:01.248Z,6.97
2018-01-22T05:59:28.789Z,6.95
2018-01-22T06:01:56.356Z,7.55
2018-01-22T06:04:23.899Z,8.00
2018-01-22T06:06:52.229Z,6.87
2018-01-22T06:09:19.801Z,7.37
2018-01-22T06:11:47.346Z,7.40
2018-01-22T06:14:14.897Z,7.82
2018-01-22T06:16:42.437Z,8.40
2018-01-22T06:19:10.015Z,7.12
2018-01-22T06:21:37.629Z,6.75
2018-01-22T06:24:05.168Z,5.70
2018-01-22T06:26:32.702Z,6.93
2018-01-22T06:29:00.257Z,7.00
2018-01-22T06:31:27.797Z,7.05
2018-01-22T06:33:55.351Z,6.35
2018-01-22T06:36:23.649Z,5.50
2018-01-22T06:38:51.215Z,5.85
2018-01-22T06:41:18.801Z,7.47
2018-01-22T06:43:46.363Z,7.05
2018-01-22T06:46:13.993Z,7.90
2018-01-22T06:48:41.540Z,7.65
2018-01-22T06:51:09.858Z,7.97
2018-01-22T06:53:37.410Z,8.07
2018-01-22T06:56:04.966Z,9.07
2018-01-22T06:58:32.509Z,7.60
2018-01-22T07:01:00.063Z,8.68
2018-01-22T07:03:28.393Z,8.05
2018-01-22T07:05:55.944Z,8.32
2018-01-22T07:08:23.527Z,10.07
2018-01-22T07:10:51.077Z,9.02
2018-01-22T07:13:18.644Z,8.40
2018-01-22T07:15:46.220Z,7.40
2018-01-22T07:18:13.768Z,6.12
2018-01-22T07:20:41.308Z,6.95
2018-01-22T07:23:08.865Z,6.60
2018-01-22T07:25:36.421Z,8.45
2018-01-22T07:28:04.015Z,7.62
2018-01-22T07:30:31.587Z,6.75
2018-01-22T07:32:59.145Z,8.60
2018-01-22T07:35:27.467Z,9.95
2018-01-22T07:37:55.025Z,10.40
2018-01-22T07:40:23.329Z,8.02
2018-01-22T07:42:50.895Z,8.95
2018-01-22T07:45:18.450Z,11.95
2018-01-22T07:47:46.065Z,11.45
2018-01-22T07:50:13.749Z,9.50
2018-01-22T07:52:41.321Z,9.90
2018-01-22T07:55:08.885Z,10.05
2018-01-22T07:57:36.425Z,10.98
2018-01-22T08:00:04.762Z,10.93
2018-01-22T08:02:32.320Z,10.07
2018-01-22T08:04:59.898Z,9.02
2018-01-22T08:07:27.809Z,9.60
2018-01-22T08:09:56.325Z,11.70
2018-01-22T08:12:23.910Z,13.38
2018-01-22T08:14:51.510Z,9.02
2018-01-22T08:17:19.849Z,12.10
2018-01-22T08:19:47.407Z,9.52
2018-01-22T08:22:14.983Z,8.32
2018-01-22T08:24:42.521Z,7.55
2018-01-22T08:27:10.069Z,7.95
2018-01-22T08:29:37.679Z,11.52
2018-01-22T08:32:05.272Z,7.10
2018-01-22T08:34:33.615Z,9.05
2018-01-22T08:37:01.176Z,10.77
2018-01-22T08:39:29.507Z,12.00
2018-01-22T08:41:57.053Z,9.85
2018-01-22T08:44:24.645Z,11.50
2018-01-22T08:46:52.211Z,9.60
2018-01-22T08:49:19.760Z,10.48
2018-01-22T08:51:47.325Z,9.27
2018-01-22T08:54:14.901Z,10.30
2018-01-22T08:56:42.466Z,10.00
2018-01-22T08:59:10.005Z,12.60
2018-01-22T09:01:37.573Z,7.87
2018-01-22T09:04:05.159Z,11.82
2018-01-22T09:06:32.723Z,11.95
2018-01-22T09:09:00.451Z,7.32
2018-01-22T09:11:27.985Z,9.25
2018-01-22T09:13:56.433Z,9.35
2018-01-22T09:16:24.005Z,11.65
2018-01-22T09:18:51.585Z,12.50
2018-01-22T09:21:19.909Z,10.55
2018-01-22T09:23:47.476Z,10.05
2018-01-22T09:26:15.029Z,11.57
2018-01-22T09:28:42.586Z,10.70
2018-01-22T09:31:10.174Z,12.18
2018-01-22T09:33:37.721Z,11.73
2018-01-22T09:36:05.485Z,17.70
2018-01-22T09:38:32.853Z,14.95
2018-01-22T09:41:00.414Z,13.07
2018-01-22T09:43:27.966Z,11.45
2018-01-22T09:45:56.390Z,15.52
2018-01-22T09:48:24.738Z,10.00
2018-01-22T09:50:52.332Z,17.83
2018-01-22T09:53:20.686Z,17.40
2018-01-22T09:55:48.251Z,11.52
2018-01-22T09:58:15.835Z,12.40
2018-01-22T10:00:44.189Z,11.87
2018-01-22T10:03:12.005Z,18.58
2018-01-22T10:05:40.549Z,15.27
2018-01-22T10:08:08.118Z,16.77
2018-01-22T10:10:35.669Z,14.40
2018-01-22T10:13:03.220Z,15.50
2018-01-22T10:15:30.789Z,13.87
2018-01-22T10:17:58.370Z,14.40
2018-01-22T10:20:25.980Z,14.53
2018-01-22T10:22:53.636Z,15.20
2018-01-22T10:25:21.216Z,18.87
2018-01-22T10:27:48.773Z,15.73
2018-01-22T10:30:16.470Z,18.80
2018-01-22T10:32:44.092Z,15.23
2018-01-22T10:35:12.496Z,23.30
2018-01-22T10:37:40.102Z,18.57
2018-01-22T10:40:07.629Z,17.60
2018-01-22T10:42:35.379Z,18.47
2018-01-22T10:45:02.937Z,15.77
2018-01-22T10:47:30.521Z,15.03
2018-01-22T10:49:58.148Z,18.13
2018-01-22T10:52:25.781Z,19.03
2018-01-22T10:54:54.097Z,13.77
2018-01-22T10:57:21.681Z,16.40
2018-01-22T10:59:49.261Z,12.57
2018-01-22T11:02:16.936Z,21.90
2018-01-22T11:04:44.479Z,14.67
2018-01-22T11:07:12.041Z,15.03
2018-01-22T11:09:39.665Z,9.77
2018-01-22T11:12:07.265Z,9.67
2018-01-22T11:14:35.786Z,13.43
2018-01-22T11:17:04.110Z,19.73
2018-01-22T11:19:31.688Z,10.83
2018-01-22T11:21:59.249Z,13.57
2018-01-22T11:24:26.792Z,12.67
2018-01-22T11:26:54.374Z,12.43
2018-01-22T11:29:21.925Z,7.97
2018-01-22T11:31:49.479Z,12.97
2018-01-22T11:34:17.038Z,14.23
2018-01-22T11:36:44.741Z,12.10
2018-01-22T11:39:12.281Z,13.93
2018-01-22T11:41:40.013Z,12.60
2018-01-22T11:44:07.593Z,12.60
2018-01-22T11:46:35.513Z,13.17
2018-01-22T11:49:03.832Z,9.80
2018-01-22T11:51:31.401Z,12.43
2018-01-22T11:53:59.002Z,13.27
2018-01-22T11:56:26.653Z,12.13
2018-01-22T11:58:54.238Z,11.57
2018-01-22T12:01:21.826Z,17.83
2018-01-22T12:03:49.375Z,10.70
2018-01-22T12:06:17.695Z,8.83
2018-01-22T12:08:45.352Z,12.23
2018-01-22T12:11:12.937Z,21.13
2018-01-22T12:13:40.496Z,9.20
2018-01-22T12:16:08.057Z,13.77
2018-01-22T12:18:35.612Z,15.80
2018-01-22T12:21:03.197Z,10.77
2018-01-22T12:23:30.777Z,16.00
2018-01-22T12:25:59.142Z,11.07
2018-01-22T12:28:26.684Z,16.43
2018-01-22T12:30:54.321Z,16.13
2018-01-22T12:33:21.881Z,17.40
2018-01-22T12:35:49.446Z,13.83
2018-01-22T12:38:17.010Z,11.83
2018-01-22T12:40:44.713Z,8.17
2018-01-22T12:43:12.266Z,17.87
2018-01-22T12:45:39.839Z,15.83
2018-01-22T12:48:07.413Z,14.80
2018-01-22T12:50:35.753Z,19.87
2018-01-22T12:53:03.316Z,19.57
2018-01-22T12:55:30.882Z,16.23
2018-01-22T12:57:58.445Z,12.83
2018-01-22T13:00:26.913Z,16.00
2018-01-22T13:02:54.481Z,14.47
2018-01-22T13:05:22.068Z,18.93
2018-01-22T13:07:49.649Z,17.10
2018-01-22T13:10:17.202Z,19.33
2018-01-22T13:12:44.798Z,19.37
2018-01-22T13:15:12.471Z,18.63
2018-01-22T13:17:40.131Z,16.83
2018-01-22T13:20:07.689Z,18.80
2018-01-22T13:22:48.808Z,10.80
2018-01-22T13:25:19.641Z,17.10
2018-01-22T13:27:51.064Z,11.40
2018-01-22T13:30:18.637Z,10.57
2018-01-22T13:32:46.205Z,13.53
2018-01-22T13:35:17.401Z,11.63
2018-01-22T13:37:45.750Z,13.67
2018-01-22T13:40:18.839Z,8.63
2018-01-22T13:42:46.413Z,14.83
2018-01-22T13:45:14.059Z,14.27
2018-01-22T13:47:41.641Z,9.37
2018-01-22T13:50:09.190Z,13.13
2018-01-22T13:52:36.772Z,10.10
2018-01-22T13:55:04.510Z,9.23
2018-01-22T13:57:32.088Z,13.50
2018-01-22T13:59:59.672Z,10.00
2018-01-22T14:02:27.256Z,15.57
2018-01-22T14:04:54.836Z,12.00
2018-01-22T14:07:22.382Z,9.40
2018-01-22T14:09:49.959Z,10.30
2018-01-22T14:12:17.523Z,17.50
2018-01-22T14:14:45.102Z,14.83
2018-01-22T14:17:12.673Z,8.67
2018-01-22T14:19:40.329Z,12.30
2018-01-22T14:22:08.818Z,13.90
2018-01-22T14:24:36.394Z,16.30
2018-01-22T14:27:03.968Z,8.60
2018-01-22T14:29:32.310Z,12.40
2018-01-22T14:31:59.880Z,15.27
2018-01-22T14:34:27.482Z,13.43
2018-01-22T14:36:55.162Z,7.93
2018-01-22T14:39:23.477Z,20.90
2018-01-22T14:41:51.059Z,26.43
2018-01-22T14:44:18.609Z,21.33
2018-01-22T14:46:46.257Z,15.73
2018-01-22T14:49:13.816Z,8.73
2018-01-22T14:51:41.373Z,9.60
2018-01-22T14:54:09.037Z,15.40
2018-01-22T14:56:36.615Z,10.97
2018-01-22T14:59:04.176Z,10.83
2018-01-22T15:01:31.771Z,12.30
2018-01-22T15:04:00.114Z,12.17
2018-01-22T15:06:27.656Z,15.57
2018-01-22T15:08:55.238Z,10.03
2018-01-22T15:11:23.096Z,11.73
2018-01-22T15:13:50.724Z,20.10
2018-01-22T15:16:18.287Z,7.33
2018-01-22T15:18:45.842Z,12.63
2018-01-22T15:21:14.191Z,16.13
2018-01-22T15:23:41.761Z,12.63
2018-01-22T15:26:09.330Z,18.10
2018-01-22T15:28:36.893Z,18.13
2018-01-22T15:31:04.462Z,7.80
2018-01-22T15:33:32.029Z,12.27
2018-01-22T15:35:59.594Z,12.50
2018-01-22T15:38:27.153Z,11.20
2018-01-22T15:40:54.767Z,18.57
2018-01-22T15:43:22.355Z,13.60
2018-01-22T15:45:49.919Z,15.17
2018-01-22T15:48:17.509Z,12.67
2018-01-22T15:50:45.837Z,14.23
2018-01-22T15:53:13.419Z,10.83
2018-01-22T15:55:40.968Z,17.00
2018-01-22T15:58:08.550Z,11.87
2018-01-22T16:00:36.133Z,22.97
2018-01-22T16:03:04.467Z,11.80
2018-01-22T16:05:32.031Z,16.98
2018-01-22T16:07:59.611Z,13.80
2018-01-22T16:10:27.191Z,13.90
2018-01-22T16:12:54.763Z,20.37
2018-01-22T16:15:23.118Z,19.33
2018-01-22T16:17:50.686Z,14.15
2018-01-22T16:20:18.270Z,15.77
2018-01-22T16:22:45.844Z,19.33
2018-01-22T16:25:14.299Z,15.82
2018-01-22T16:27:41.864Z,12.83
2018-01-22T16:30:10.205Z,18.60
2018-01-22T16:32:37.813Z,19.67
2018-01-22T16:35:05.480Z,16.30
2018-01-22T16:37:33.856Z,13.30
2018-01-22T16:40:01.435Z,17.17
2018-01-22T16:42:29.757Z,19.20
2018-01-22T16:44:57.340Z,18.93
2018-01-22T16:47:30.478Z,29.05
2018-01-22T16:49:58.169Z,15.80
2018-01-22T16:52:25.734Z,15.90
2018-01-22T16:54:53.505Z,19.30
2018-01-22T16:57:21.077Z,11.85
2018-01-22T16:59:48.688Z,11.30
2018-01-22T17:02:17.031Z,16.77
2018-01-22T17:04:44.767Z,18.20
2018-01-22T17:07:12.349Z,15.33
2018-01-22T17:09:50.077Z,17.67
2018-01-22T17:12:17.668Z,18.27
2018-01-22T17:14:45.256Z,14.60
2018-01-22T17:17:12.858Z,23.35
2018-01-22T17:19:40.441Z,9.43
2018-01-22T17:22:08.774Z,19.05
2018-01-22T17:24:36.477Z,18.90
2018-01-22T17:27:04.852Z,21.77
2018-01-22T17:29:32.407Z,22.98
2018-01-22T17:32:00.000Z,14.13
2018-01-22T17:34:27.582Z,16.17
2018-01-22T17:36:55.182Z,12.23
2018-01-22T17:39:22.753Z,16.80
2018-01-22T17:41:50.330Z,23.50
2018-01-22T17:44:18.731Z,19.70
2018-01-22T17:46:47.056Z,24.80
2018-01-22T17:49:15.516Z,17.00
2018-01-22T17:51:43.114Z,12.37
2018-01-22T17:54:10.697Z,20.88
2018-01-22T17:56:38.270Z,17.75
2018-01-22T17:59:06.601Z,21.08
2018-01-22T18:01:34.169Z,15.10
2018-01-22T18:04:01.778Z,17.85
2018-01-22T18:06:30.581Z,22.57
2018-01-22T18:08:58.157Z,18.02
2018-01-22T18:11:26.415Z,19.70
2018-01-22T18:13:57.118Z,23.73
2018-01-22T18:16:24.837Z,23.57
2018-01-22T18:18:52.415Z,23.73
2018-01-22T18:21:19.982Z,19.45
2018-01-22T18:23:47.570Z,23.73
2018-01-22T18:26:15.177Z,18.70
2018-01-22T18:28:42.860Z,21.35
2018-01-22T18:31:11.343Z,24.73
2018-01-22T18:33:39.928Z,25.05
2018-01-22T18:36:07.485Z,21.12
2018-01-22T18:38:35.150Z,15.02
2018-01-22T18:41:02.764Z,25.02
2018-01-22T18:43:31.212Z,25.15
2018-01-22T18:45:58.822Z,23.85
2018-01-22T18:48:27.158Z,30.70
2018-01-22T18:50:54.850Z,22.48
2018-01-22T18:53:23.113Z,24.40
2018-01-22T18:55:50.701Z,17.17
2018-01-22T18:58:18.323Z,23.83
2018-01-22T19:00:46.755Z,30.00
2018-01-22T19:03:14.343Z,26.02
2018-01-22T19:05:42.681Z,22.13
2018-01-22T19:08:10.486Z,26.45
2018-01-22T19:10:38.143Z,22.33
2018-01-22T19:13:05.813Z,23.85
2018-01-22T19:15:33.445Z,23.02
2018-01-22T19:18:01.026Z,34.45
2018-01-22T19:20:28.626Z,37.88
2018-01-22T19:22:56.968Z,31.73
2018-01-22T19:25:24.541Z,36.28
2018-01-22T19:27:52.151Z,35.60
2018-01-22T19:30:19.798Z,44.72
2018-01-22T19:32:48.270Z,36.55
2018-01-22T19:35:16.792Z,38.75
2018-01-22T19:37:45.348Z,39.70
2018-01-22T19:40:13.745Z,38.03
2018-01-22T19:42:41.305Z,26.08
2018-01-22T19:45:08.878Z,19.83
2018-01-22T19:47:36.504Z,23.85
2018-01-22T19:50:04.117Z,33.95
2018-01-22T19:52:31.689Z,29.20
2018-01-22T19:54:59.303Z,25.85
2018-01-22T19:57:27.672Z,27.40
2018-01-22T19:59:55.285Z,28.23
2018-01-22T20:02:22.869Z,38.40
2018-01-22T20:04:50.526Z,29.87
2018-01-22T20:07:18.092Z,31.62
2018-01-22T20:09:45.669Z,27.73
2018-01-22T20:12:13.374Z,31.73
2018-01-22T20:14:41.703Z,25.23
2018-01-22T20:17:09.300Z,23.15
2018-01-22T20:19:37.657Z,29.02
2018-01-22T20:22:05.331Z,30.98
2018-01-22T20:24:32.924Z,29.60
2018-01-22T20:27:00.501Z,39.53
2018-01-22T20:29:28.305Z,25.62
2018-01-22T20:31:55.864Z,29.00
2018-01-22T20:34:23.438Z,26.58
2018-01-22T20:36:51.118Z,23.33
2018-01-22T20:39:18.680Z,30.37
2018-01-22T20:41:46.293Z,21.90
2018-01-22T20:44:13.866Z,34.00
2018-01-22T20:46:41.508Z,27.80
2018-01-22T20:49:09.085Z,33.25
2018-01-22T20:51:36.798Z,28.08
2018-01-22T20:54:04.379Z,23.93
2018-01-22T20:56:31.983Z,35.83
2018-01-22T20:58:59.665Z,27.35
2018-01-22T21:01:27.240Z,31.02
2018-01-22T21:03:54.828Z,24.77
2018-01-22T21:06:23.167Z,21.83
2018-01-22T21:08:50.716Z,28.77
2018-01-22T21:11:18.374Z,24.55
2018-01-22T21:13:46.678Z,28.33
2018-01-22T21:16:14.245Z,24.45
2018-01-22T21:18:42.584Z,34.00
2018-01-22T21:21:10.160Z,28.85
2018-01-22T21:23:37.730Z,22.25
2018-01-22T21:26:05.391Z,20.12
2018-01-22T21:28:33.008Z,26.58
2018-01-22T21:31:01.150Z,23.20
2018-01-22T21:33:28.721Z,24.25
2018-01-22T21:35:56.333Z,28.15
2018-01-22T21:38:23.909Z,19.65
2018-01-22T21:40:51.467Z,13.73
2018-01-22T21:43:19.025Z,16.83
2018-01-22T21:45:47.586Z,20.35
2018-01-22T21:48:15.174Z,29.98
2018-01-22T21:50:42.761Z,16.95
2018-01-22T21:53:10.502Z,21.45
2018-01-22T21:55:38.057Z,25.60
2018-01-22T21:58:05.903Z,26.62
2018-01-22T22:00:33.496Z,22.77
2018-01-22T22:03:01.056Z,12.10
2018-01-22T22:05:28.629Z,26.50
2018-01-22T22:07:57.120Z,20.65
2018-01-22T22:10:24.677Z,27.92
2018-01-22T22:12:52.210Z,22.17
2018-01-22T22:15:19.766Z,22.87
2018-01-22T22:17:47.334Z,19.00
2018-01-22T22:20:14.933Z,24.58
2018-01-22T22:22:42.616Z,18.15
2018-01-22T22:25:10.958Z,26.37
2018-01-22T22:27:38.535Z,29.45
2018-01-22T22:30:06.162Z,25.45
2018-01-22T22:32:33.729Z,20.45
2018-01-22T22:35:01.444Z,15.60
2018-01-22T22:37:28.989Z,17.75
2018-01-22T22:39:56.551Z,18.67
2018-01-22T22:42:24.116Z,13.30
2018-01-22T22:44:51.798Z,21.65
2018-01-22T22:47:19.361Z,24.05
2018-01-22T22:49:47.048Z,18.52
2018-01-22T22:52:14.612Z,16.35
2018-01-22T22:54:42.241Z,18.85
2018-01-22T22:57:09.796Z,16.58
2018-01-22T22:59:37.348Z,18.52
2018-01-22T23:02:04.921Z,16.08
2018-01-22T23:04:32.490Z,21.80
2018-01-22T23:07:00.081Z,21.25
2018-01-22T23:09:27.653Z,20.88
2018-01-22T23:11:55.333Z,15.25
2018-01-22T23:14:23.969Z,22.10
2018-01-22T23:16:51.514Z,30.35
2018-01-22T23:19:19.096Z,19.17
2018-01-22T23:21:46.653Z,19.92
2018-01-22T23:24:14.265Z,21.30
2018-01-22T23:26:41.878Z,15.77
2018-01-22T23:29:09.461Z,21.33
2018-01-22T23:31:37.025Z,19.10
2018-01-22T23:34:05.014Z,23.58
2018-01-22T23:36:33.484Z,23.08
2018-01-22T23:39:01.174Z,21.52
2018-01-22T23:41:28.728Z,21.42
2018-01-22T23:43:56.294Z,23.50
2018-01-22T23:46:23.861Z,25.10
2018-01-22T23:48:51.605Z,22.33
2018-01-22T23:51:19.172Z,25.75
2018-01-22T23:53:46.762Z,16.92
2018-01-22T23:56:15.118Z,19.35
2018-01-22T23:58:42.696Z,25.90
